createdAt,value
2018-12-31T00:02:09.964Z,161.27
2018-12-31T00:04:43.005Z,145.10
2018-12-31T00:07:15.774Z,147.60
2018-12-31T00:09:48.869Z,153.53
2018-12-31T00:12:22.999Z,151.80
2018-12-31T00:14:56.077Z,159.43
2018-12-31T00:17:29.256Z,151.37
2018-12-31T00:20:02.444Z,161.83
2018-12-31T00:22:35.420Z,159.93
2018-12-31T00:25:08.439Z,164.20
2018-12-31T00:27:41.449Z,166.17
2018-12-31T00:30:14.535Z,164.23
2018-12-31T00:32:48.540Z,171.37
2018-12-31T00:35:21.527Z,158.47
2018-12-31T00:37:54.813Z,169.03
2018-12-31T00:40:28.181Z,166.47
2018-12-31T00:43:01.324Z,169.70
2018-12-31T00:45:34.463Z,165.23
2018-12-31T00:48:07.721Z,188.87
2018-12-31T00:50:40.936Z,199.37
2018-12-31T00:53:13.882Z,182.73
2018-12-31T00:55:46.876Z,198.73
2018-12-31T00:58:19.881Z,190.43
2018-12-31T01:00:52.911Z,196.30
2018-12-31T01:03:26.170Z,202.37
2018-12-31T01:05:59.811Z,185.73
2018-12-31T01:08:32.814Z,190.30
2018-12-31T01:11:05.972Z,168.07
2018-12-31T01:13:39.244Z,201.97
2018-12-31T01:16:12.444Z,183.23
2018-12-31T01:18:45.428Z,186.47
2018-12-31T01:21:18.460Z,179.03
2018-12-31T01:23:51.466Z,175.07
2018-12-31T01:26:24.501Z,171.87
2018-12-31T01:28:57.925Z,168.03
2018-12-31T01:31:30.998Z,152.83
2018-12-31T01:34:04.067Z,141.30
2018-12-31T01:36:37.024Z,123.47
2018-12-31T01:39:10.194Z,137.90
2018-12-31T01:41:43.197Z,139.17
2018-12-31T01:44:16.205Z,165.47
2018-12-31T01:46:49.177Z,155.23
2018-12-31T01:49:22.103Z,141.17
2018-12-31T01:51:55.324Z,137.83
2018-12-31T01:54:28.449Z,143.35
2018-12-31T01:57:01.483Z,157.67
2018-12-31T01:59:34.878Z,150.83
2018-12-31T02:02:08.012Z,152.03
2018-12-31T02:04:41.108Z,162.90
2018-12-31T02:07:14.109Z,127.95
2018-12-31T02:09:47.119Z,162.37
2018-12-31T02:12:21.036Z,163.93
2018-12-31T02:14:54.555Z,152.80
2018-12-31T02:17:27.374Z,155.83
2018-12-31T02:20:00.623Z,157.60
2018-12-31T02:22:33.475Z,147.65
2018-12-31T02:25:06.550Z,150.17
2018-12-31T02:27:39.463Z,129.85
2018-12-31T02:30:12.626Z,144.63
2018-12-31T02:32:46.236Z,152.03
2018-12-31T02:35:19.648Z,154.10
2018-12-31T02:37:52.935Z,137.90
2018-12-31T02:40:26.203Z,91.63
2018-12-31T02:43:00.474Z,80.43
2018-12-31T02:45:33.491Z,72.03
2018-12-31T02:48:07.245Z,54.45
2018-12-31T02:50:40.217Z,56.08
2018-12-31T02:53:13.186Z,56.27
2018-12-31T02:55:46.686Z,42.00
2018-12-31T02:58:20.495Z,49.40
2018-12-31T03:00:56.935Z,36.47
2018-12-31T03:03:29.790Z,46.90
2018-12-31T03:06:02.768Z,39.57
2018-12-31T03:08:35.853Z,37.80
2018-12-31T03:11:09.337Z,48.53
2018-12-31T03:13:42.431Z,46.33
2018-12-31T03:16:15.444Z,51.67
2018-12-31T03:18:49.039Z,44.07
2018-12-31T03:21:23.375Z,53.55
2018-12-31T03:23:56.090Z,64.07
2018-12-31T03:26:29.551Z,54.13
2018-12-31T03:29:03.499Z,62.67
2018-12-31T03:31:36.934Z,45.23
2018-12-31T03:34:10.307Z,56.77
2018-12-31T03:36:43.372Z,70.63
2018-12-31T03:39:16.863Z,63.03
2018-12-31T03:41:49.935Z,77.17
2018-12-31T03:44:22.822Z,69.35
2018-12-31T03:46:56.346Z,60.98
2018-12-31T03:49:29.590Z,67.70
2018-12-31T03:52:02.949Z,69.72
2018-12-31T03:54:36.155Z,65.25
2018-12-31T03:57:09.654Z,80.92
2018-12-31T03:59:42.878Z,79.17
2018-12-31T04:02:16.289Z,91.00
2018-12-31T04:04:49.485Z,112.57
2018-12-31T04:07:23.393Z,101.67
2018-12-31T04:09:56.929Z,94.13
2018-12-31T04:12:30.243Z,68.97
2018-12-31T04:15:03.396Z,48.67
2018-12-31T04:17:36.440Z,37.60
2018-12-31T04:20:10.433Z,35.98
2018-12-31T04:22:44.140Z,31.85
2018-12-31T04:25:17.200Z,34.50
2018-12-31T04:27:50.461Z,35.17
2018-12-31T04:30:23.700Z,43.20
2018-12-31T04:32:57.298Z,30.57
2018-12-31T04:35:30.378Z,31.00
2018-12-31T04:38:04.010Z,27.60
2018-12-31T04:40:37.721Z,32.17
2018-12-31T04:43:11.346Z,33.80
2018-12-31T04:45:45.030Z,42.30
2018-12-31T04:48:18.430Z,42.77
2018-12-31T04:50:52.404Z,42.53
2018-12-31T04:53:25.611Z,54.37
2018-12-31T04:55:59.330Z,48.93
2018-12-31T04:58:33.663Z,54.23
2018-12-31T05:01:06.909Z,47.47
2018-12-31T05:03:40.117Z,49.73
2018-12-31T05:06:13.152Z,54.53
2018-12-31T05:08:46.619Z,57.20
2018-12-31T05:11:19.790Z,47.17
2018-12-31T05:13:52.777Z,49.27
2018-12-31T05:16:25.947Z,49.87
2018-12-31T05:19:01.542Z,47.57
2018-12-31T05:21:34.862Z,41.60
2018-12-31T05:24:08.624Z,46.87
2018-12-31T05:26:42.141Z,44.10
2018-12-31T05:29:15.365Z,40.80
2018-12-31T05:31:48.545Z,46.17
2018-12-31T05:34:22.134Z,48.97
2018-12-31T05:36:55.733Z,36.80
2018-12-31T05:39:28.872Z,34.97
2018-12-31T05:42:02.155Z,41.33
2018-12-31T05:44:35.508Z,36.23
2018-12-31T05:47:23.264Z,42.97
2018-12-31T05:50:01.301Z,43.77
2018-12-31T05:52:34.977Z,43.90
2018-12-31T05:55:08.650Z,39.87
2018-12-31T05:57:42.328Z,40.53
2018-12-31T06:00:16.362Z,44.83
2018-12-31T06:02:50.493Z,47.43
2018-12-31T06:05:24.279Z,43.10
2018-12-31T06:07:57.426Z,35.43
2018-12-31T06:10:30.454Z,38.27
2018-12-31T06:13:04.425Z,46.43
2018-12-31T06:15:37.501Z,50.80
2018-12-31T06:18:10.455Z,45.57
2018-12-31T06:20:43.654Z,42.43
2018-12-31T06:23:16.774Z,40.47
2018-12-31T06:25:50.207Z,45.00
2018-12-31T06:28:23.725Z,38.07
2018-12-31T06:30:56.639Z,42.93
2018-12-31T06:33:29.560Z,39.67
2018-12-31T06:36:02.563Z,38.13
2018-12-31T06:38:37.102Z,48.25
2018-12-31T06:41:11.204Z,37.47
2018-12-31T06:43:45.530Z,39.47
2018-12-31T06:46:22.876Z,40.43
2018-12-31T06:48:56.326Z,35.03
2018-12-31T06:51:29.677Z,38.13
2018-12-31T06:54:05.242Z,33.83
2018-12-31T06:56:38.371Z,34.30
2018-12-31T06:59:13.177Z,35.73
2018-12-31T07:01:46.586Z,32.97
2018-12-31T07:04:19.691Z,37.43
2018-12-31T07:06:52.495Z,32.60
2018-12-31T07:09:26.800Z,35.98
2018-12-31T07:12:00.493Z,30.17
2018-12-31T07:14:33.951Z,26.48
2018-12-31T07:17:06.930Z,22.05
2018-12-31T07:19:40.693Z,26.23
2018-12-31T07:22:14.086Z,26.60
2018-12-31T07:24:47.236Z,24.37
2018-12-31T07:27:20.649Z,28.87
2018-12-31T07:29:53.668Z,24.82
2018-12-31T07:32:26.906Z,27.03
2018-12-31T07:35:01.549Z,25.63
2018-12-31T07:37:34.334Z,23.53
2018-12-31T07:40:07.587Z,23.07
2018-12-31T07:42:40.691Z,27.43
2018-12-31T07:45:13.698Z,31.83
2018-12-31T07:47:46.627Z,26.87
2018-12-31T07:50:20.319Z,30.07
2018-12-31T07:52:54.535Z,28.10
2018-12-31T07:55:28.743Z,30.87
2018-12-31T07:58:06.087Z,28.87
2018-12-31T08:00:39.521Z,29.10
2018-12-31T08:03:13.103Z,35.43
2018-12-31T08:05:46.213Z,29.17
2018-12-31T08:08:19.424Z,25.93
2018-12-31T08:10:52.429Z,40.40
2018-12-31T08:13:25.379Z,46.53
2018-12-31T08:15:58.706Z,42.40
2018-12-31T08:18:32.103Z,43.97
2018-12-31T08:21:05.413Z,43.07
2018-12-31T08:23:39.541Z,45.90
2018-12-31T08:26:14.134Z,46.60
2018-12-31T08:28:48.302Z,45.30
2018-12-31T08:31:22.078Z,54.03
2018-12-31T08:33:55.526Z,48.73
2018-12-31T08:36:29.087Z,56.83
2018-12-31T08:39:04.601Z,57.07
2018-12-31T08:41:38.462Z,49.27
2018-12-31T08:44:11.895Z,47.57
2018-12-31T08:46:45.136Z,42.37
2018-12-31T08:49:19.555Z,45.23
2018-12-31T08:51:53.688Z,49.80
2018-12-31T08:54:26.995Z,44.90
2018-12-31T08:57:01.056Z,51.67
2018-12-31T08:59:34.369Z,49.67
2018-12-31T09:02:07.277Z,50.97
2018-12-31T09:04:40.828Z,53.67
2018-12-31T09:07:13.913Z,59.37
2018-12-31T09:09:46.915Z,58.47
2018-12-31T09:12:19.917Z,46.97
2018-12-31T09:14:52.888Z,50.07
2018-12-31T09:17:25.963Z,46.20
2018-12-31T09:19:58.978Z,52.37
2018-12-31T09:22:32.055Z,47.50
2018-12-31T09:25:05.161Z,46.40
2018-12-31T09:27:38.113Z,52.10
2018-12-31T09:30:11.834Z,48.27
2018-12-31T09:32:44.906Z,51.80
2018-12-31T09:35:18.535Z,58.70
2018-12-31T09:37:52.852Z,54.87
2018-12-31T09:40:25.887Z,57.93
2018-12-31T09:42:59.574Z,61.97
2018-12-31T09:45:32.626Z,64.03
2018-12-31T09:48:06.456Z,67.80
2018-12-31T09:50:39.938Z,62.43
2018-12-31T09:53:13.191Z,58.37
2018-12-31T09:55:46.415Z,62.93
2018-12-31T09:58:28.293Z,66.28
2018-12-31T10:01:01.417Z,68.63
2018-12-31T10:03:34.430Z,69.30
2018-12-31T10:06:07.405Z,69.47
2018-12-31T10:08:40.383Z,74.07
2018-12-31T10:11:14.539Z,85.30
2018-12-31T10:13:47.608Z,70.47
2018-12-31T10:16:20.965Z,90.47
2018-12-31T10:18:54.109Z,73.10
2018-12-31T10:21:26.838Z,73.53
2018-12-31T10:23:59.839Z,67.43
2018-12-31T10:26:52.490Z,72.27
2018-12-31T10:29:25.582Z,80.07
2018-12-31T10:31:58.574Z,78.53
2018-12-31T10:34:31.839Z,73.70
2018-12-31T10:37:08.009Z,79.73
2018-12-31T10:39:41.325Z,74.23
2018-12-31T10:42:14.795Z,71.43
2018-12-31T10:44:47.712Z,80.95
2018-12-31T10:47:40.199Z,77.17
2018-12-31T10:50:13.362Z,90.35
2018-12-31T10:52:46.402Z,80.57
2018-12-31T10:55:19.436Z,79.93
2018-12-31T10:57:52.561Z,68.33
2018-12-31T11:00:28.266Z,69.20
2018-12-31T11:03:01.230Z,71.07
2018-12-31T11:05:34.131Z,77.20
2018-12-31T11:08:07.200Z,66.20
2018-12-31T11:10:40.192Z,79.53
2018-12-31T11:13:12.997Z,74.03
2018-12-31T11:15:45.680Z,78.13
2018-12-31T11:18:18.477Z,75.97
2018-12-31T11:20:51.591Z,83.10
2018-12-31T11:23:24.816Z,79.67
2018-12-31T11:25:58.102Z,72.80
2018-12-31T11:28:30.838Z,70.27
2018-12-31T11:31:03.793Z,72.85
2018-12-31T11:33:36.451Z,68.72
2018-12-31T11:36:09.555Z,72.37
2018-12-31T11:38:42.479Z,76.57
2018-12-31T11:41:15.599Z,76.22
2018-12-31T11:43:48.631Z,75.15
2018-12-31T11:46:22.073Z,74.67
2018-12-31T11:48:55.220Z,73.20
2018-12-31T11:51:28.288Z,77.13
2018-12-31T11:54:01.180Z,77.50
2018-12-31T11:56:34.329Z,81.17
2018-12-31T11:59:07.316Z,73.13
2018-12-31T12:01:40.258Z,86.13
2018-12-31T12:04:13.420Z,77.17
2018-12-31T12:06:46.531Z,72.42
2018-12-31T12:09:19.600Z,75.30
2018-12-31T12:11:52.775Z,82.67
2018-12-31T12:14:25.997Z,84.57
2018-12-31T12:16:59.018Z,84.37
2018-12-31T12:19:32.008Z,84.10
2018-12-31T12:22:07.463Z,87.10
2018-12-31T12:24:40.198Z,87.80
2018-12-31T12:27:15.905Z,92.78
2018-12-31T12:29:55.998Z,85.32
2018-12-31T12:32:29.043Z,84.10
2018-12-31T12:35:02.341Z,99.57
2018-12-31T12:37:36.078Z,90.43
2018-12-31T12:40:12.804Z,92.63
2018-12-31T12:42:45.959Z,87.60
2018-12-31T12:45:19.896Z,93.20
2018-12-31T12:47:53.120Z,110.10
2018-12-31T12:50:26.754Z,92.92
2018-12-31T12:53:00.571Z,107.50
2018-12-31T12:55:35.819Z,91.82
2018-12-31T12:58:08.245Z,94.50
2018-12-31T13:00:41.313Z,103.53
2018-12-31T13:03:14.583Z,90.43
2018-12-31T13:05:48.167Z,110.00
2018-12-31T13:08:21.260Z,94.67
2018-12-31T13:10:54.724Z,106.43
2018-12-31T13:13:28.163Z,98.40
2018-12-31T13:16:01.082Z,113.27
2018-12-31T13:18:34.316Z,120.57
2018-12-31T13:21:07.699Z,109.70
2018-12-31T13:23:40.750Z,106.57
2018-12-31T13:26:14.121Z,120.53
2018-12-31T13:28:47.070Z,119.87
2018-12-31T13:31:20.233Z,125.18
2018-12-31T13:33:53.696Z,114.00
2018-12-31T13:36:26.826Z,122.47
2018-12-31T13:38:59.825Z,121.30
2018-12-31T13:41:33.133Z,124.47
2018-12-31T13:44:06.284Z,128.53
2018-12-31T13:46:39.421Z,126.38
2018-12-31T13:49:12.634Z,129.17
2018-12-31T13:51:45.829Z,136.73
2018-12-31T13:54:18.583Z,116.97
2018-12-31T13:56:52.155Z,126.23
2018-12-31T13:59:25.478Z,126.38
2018-12-31T14:01:58.589Z,124.15
2018-12-31T14:04:31.417Z,122.28
2018-12-31T14:07:04.580Z,125.53
2018-12-31T14:09:37.912Z,136.00
2018-12-31T14:12:10.982Z,133.72
2018-12-31T14:14:44.057Z,134.70
2018-12-31T14:17:17.144Z,123.87
2018-12-31T14:19:50.397Z,124.93
2018-12-31T14:22:23.295Z,127.47
2018-12-31T14:24:56.457Z,132.97
2018-12-31T14:27:29.342Z,132.95
2018-12-31T14:30:02.772Z,122.27
2018-12-31T14:32:36.108Z,135.57
2018-12-31T14:35:09.155Z,146.77
2018-12-31T14:37:48.832Z,145.43
2018-12-31T14:40:24.666Z,135.33
2018-12-31T14:42:57.869Z,123.97
2018-12-31T14:45:31.984Z,141.67
2018-12-31T14:48:05.339Z,151.70
2018-12-31T14:50:38.397Z,127.33
2018-12-31T14:53:11.444Z,131.70
2018-12-31T14:55:44.633Z,141.90
2018-12-31T14:58:20.617Z,150.82
2018-12-31T15:00:54.103Z,133.37
2018-12-31T15:03:27.861Z,127.90
2018-12-31T15:06:01.139Z,127.00
2018-12-31T15:08:34.640Z,152.02
2018-12-31T15:11:07.780Z,139.93
2018-12-31T15:13:40.743Z,148.67
2018-12-31T15:16:13.842Z,152.23
2018-12-31T15:18:46.874Z,140.57
2018-12-31T15:21:19.923Z,141.90
2018-12-31T15:23:53.120Z,146.53
2018-12-31T15:26:26.183Z,152.77
2018-12-31T15:28:59.804Z,155.63
2018-12-31T15:31:33.145Z,138.88
2018-12-31T15:34:06.183Z,135.27
2018-12-31T15:36:40.417Z,157.55
2018-12-31T15:39:13.497Z,146.00
2018-12-31T15:41:49.009Z,137.33
2018-12-31T15:44:22.127Z,146.30
2018-12-31T15:46:55.176Z,156.07
2018-12-31T15:49:28.118Z,156.57
2018-12-31T15:52:01.300Z,158.17
2018-12-31T15:54:34.146Z,171.23
2018-12-31T15:57:07.231Z,167.43
2018-12-31T15:59:40.279Z,159.78
2018-12-31T16:02:13.326Z,171.20
2018-12-31T16:04:46.298Z,179.17
2018-12-31T16:07:19.481Z,162.80
2018-12-31T16:09:52.337Z,173.67
2018-12-31T16:12:25.971Z,173.63
2018-12-31T16:15:02.109Z,189.70
2018-12-31T16:17:35.265Z,178.50
2018-12-31T16:20:08.797Z,174.30
2018-12-31T16:22:41.997Z,188.00
2018-12-31T16:25:15.186Z,195.47
2018-12-31T16:27:48.156Z,184.40
2018-12-31T16:30:21.108Z,191.97
2018-12-31T16:32:54.204Z,196.63
2018-12-31T16:35:27.165Z,205.60
2018-12-31T16:38:00.150Z,191.47
2018-12-31T16:40:32.997Z,211.83
2018-12-31T16:43:06.179Z,213.37
2018-12-31T16:45:39.329Z,213.40
2018-12-31T16:48:12.423Z,213.23
2018-12-31T16:50:45.555Z,199.60
2018-12-31T16:53:18.709Z,199.13
2018-12-31T16:55:52.084Z,201.13
2018-12-31T16:58:25.088Z,207.33
2018-12-31T17:00:58.002Z,204.07
2018-12-31T17:03:31.146Z,189.10
2018-12-31T17:06:04.162Z,186.63
2018-12-31T17:08:37.239Z,204.40
2018-12-31T17:11:10.456Z,218.30
2018-12-31T17:13:43.544Z,203.10
2018-12-31T17:16:16.472Z,218.20
2018-12-31T17:18:49.646Z,204.43
2018-12-31T17:21:22.992Z,220.70
2018-12-31T17:23:56.083Z,221.07
2018-12-31T17:26:29.000Z,216.90
2018-12-31T17:29:01.917Z,201.70
2018-12-31T17:31:35.053Z,203.13
2018-12-31T17:34:07.929Z,204.20
2018-12-31T17:36:40.925Z,209.40
2018-12-31T17:39:13.983Z,188.03
2018-12-31T17:41:47.024Z,219.73
2018-12-31T17:44:20.167Z,215.13
2018-12-31T17:46:53.433Z,219.87
2018-12-31T17:49:26.577Z,181.33
2018-12-31T17:51:59.559Z,193.97
2018-12-31T17:54:33.051Z,197.60
2018-12-31T17:57:06.283Z,196.60
2018-12-31T17:59:39.278Z,217.90
2018-12-31T18:02:12.282Z,209.43
2018-12-31T18:04:45.648Z,206.23
2018-12-31T18:07:19.236Z,195.73
2018-12-31T18:09:52.794Z,206.50
2018-12-31T18:12:25.872Z,191.20
2018-12-31T18:14:59.255Z,184.87
2018-12-31T18:17:32.329Z,187.43
2018-12-31T18:20:05.915Z,179.17
2018-12-31T18:22:39.053Z,183.73
2018-12-31T18:25:12.380Z,174.20
2018-12-31T18:27:45.403Z,189.93
2018-12-31T18:30:18.434Z,173.50
2018-12-31T18:32:51.612Z,173.87
2018-12-31T18:35:24.727Z,171.97
2018-12-31T18:37:57.881Z,192.23
2018-12-31T18:40:30.802Z,186.93
2018-12-31T18:43:03.966Z,176.07
2018-12-31T18:45:36.871Z,175.83
2018-12-31T18:48:10.031Z,171.80
2018-12-31T18:50:43.120Z,155.27
2018-12-31T18:53:16.210Z,178.27
2018-12-31T18:55:49.208Z,172.13
2018-12-31T18:58:22.131Z,174.30
2018-12-31T19:00:55.080Z,167.40
2018-12-31T19:03:29.927Z,171.83
2018-12-31T19:06:02.971Z,165.27
2018-12-31T19:08:35.975Z,169.43
2018-12-31T19:11:09.140Z,180.93
2018-12-31T19:13:43.079Z,168.40
2018-12-31T19:16:16.089Z,161.37
2018-12-31T19:18:49.225Z,142.23
2018-12-31T19:21:22.237Z,155.63
2018-12-31T19:23:55.679Z,153.97
2018-12-31T19:26:29.022Z,140.30
2018-12-31T19:29:02.080Z,146.43
2018-12-31T19:31:35.154Z,167.43
2018-12-31T19:34:09.010Z,147.33
2018-12-31T19:36:42.043Z,149.37
2018-12-31T19:39:15.168Z,151.00
2018-12-31T19:41:48.183Z,137.80
2018-12-31T19:44:21.105Z,146.80
2018-12-31T19:46:53.974Z,133.47
2018-12-31T19:49:27.007Z,128.27
2018-12-31T19:52:00.061Z,139.80
2018-12-31T19:54:33.159Z,129.77
2018-12-31T19:57:06.122Z,130.30
2018-12-31T19:59:39.178Z,168.53
2018-12-31T20:02:12.106Z,141.37
2018-12-31T20:04:45.219Z,138.10
2018-12-31T20:07:18.138Z,148.67
2018-12-31T20:09:51.352Z,135.37
2018-12-31T20:12:24.527Z,129.73
2018-12-31T20:14:57.772Z,161.80
2018-12-31T20:17:31.649Z,140.70
2018-12-31T20:20:06.774Z,140.23
2018-12-31T20:22:39.383Z,119.33
2018-12-31T20:25:12.544Z,117.27
2018-12-31T20:27:46.072Z,128.20
2018-12-31T20:30:19.333Z,118.40
2018-12-31T20:32:52.582Z,117.67
2018-12-31T20:35:25.794Z,123.20
2018-12-31T20:37:58.779Z,120.77
2018-12-31T20:40:32.055Z,109.30
2018-12-31T20:43:06.113Z,114.82
2018-12-31T20:45:39.136Z,128.80
2018-12-31T20:48:12.204Z,143.50
2018-12-31T20:50:44.861Z,123.37
2018-12-31T20:53:17.501Z,139.32
2018-12-31T20:55:50.580Z,128.27
2018-12-31T20:58:23.806Z,134.73
2018-12-31T21:00:59.556Z,137.73
2018-12-31T21:03:32.595Z,123.40
2018-12-31T21:06:05.724Z,131.50
2018-12-31T21:08:38.545Z,120.27
2018-12-31T21:11:11.433Z,121.90
2018-12-31T21:13:44.515Z,125.23
2018-12-31T21:16:17.710Z,124.07
2018-12-31T21:18:50.688Z,131.67
2018-12-31T21:21:23.887Z,119.80
2018-12-31T21:23:57.165Z,122.83
2018-12-31T21:26:32.174Z,134.97
2018-12-31T21:29:04.938Z,122.37
2018-12-31T21:31:37.972Z,115.10
2018-12-31T21:34:11.016Z,122.13
2018-12-31T21:36:43.812Z,128.70
2018-12-31T21:39:16.709Z,126.10
2018-12-31T21:41:49.663Z,116.47
2018-12-31T21:44:22.752Z,118.43
2018-12-31T21:46:56.627Z,126.18
2018-12-31T21:49:29.653Z,124.47
2018-12-31T21:52:02.828Z,116.43
2018-12-31T21:54:35.946Z,117.25
2018-12-31T21:57:08.894Z,115.97
2018-12-31T21:59:41.925Z,116.28
2018-12-31T22:02:14.870Z,128.10
2018-12-31T22:04:47.955Z,104.95
2018-12-31T22:07:20.999Z,115.50
2018-12-31T22:09:54.393Z,104.90
2018-12-31T22:12:27.292Z,119.82
2018-12-31T22:15:00.197Z,132.03
2018-12-31T22:17:33.363Z,103.80
2018-12-31T22:20:08.568Z,104.93
2018-12-31T22:22:41.479Z,103.30
2018-12-31T22:25:14.466Z,96.97
2018-12-31T22:27:47.581Z,102.07
2018-12-31T22:30:22.121Z,107.16
2018-12-31T22:32:55.267Z,88.63
2018-12-31T22:35:29.427Z,107.20
2018-12-31T22:38:02.494Z,125.53
2018-12-31T22:40:35.397Z,117.30
2018-12-31T22:43:09.446Z,106.93
2018-12-31T22:45:42.693Z,103.60
2018-12-31T22:48:15.607Z,109.07
2018-12-31T22:50:48.782Z,108.70
2018-12-31T22:53:22.069Z,112.10
2018-12-31T22:55:55.430Z,112.43
2018-12-31T22:58:29.265Z,99.97
2018-12-31T23:01:02.374Z,103.57
2018-12-31T23:03:35.384Z,97.97
2018-12-31T23:06:08.525Z,106.93
2018-12-31T23:08:41.582Z,114.37
2018-12-31T23:11:14.705Z,116.40
2018-12-31T23:13:47.633Z,86.13
2018-12-31T23:16:20.728Z,112.67
2018-12-31T23:18:53.837Z,107.13
2018-12-31T23:21:26.875Z,110.53
2018-12-31T23:24:00.045Z,111.10
2018-12-31T23:26:33.069Z,103.73
2018-12-31T23:29:06.157Z,125.23
2018-12-31T23:31:39.218Z,111.80
2018-12-31T23:34:12.593Z,101.47
2018-12-31T23:36:45.788Z,113.80
2018-12-31T23:39:18.988Z,106.43
2018-12-31T23:41:51.948Z,116.00
2018-12-31T23:44:25.131Z,120.03
2018-12-31T23:46:58.289Z,110.67
2018-12-31T23:49:31.413Z,101.10
2018-12-31T23:52:04.607Z,112.57
2018-12-31T23:54:37.907Z,111.67
2018-12-31T23:57:11.094Z,108.87
2018-12-31T23:59:44.300Z,115.50
